sensor_id;sensor_type;location;lat;lon;timestamp;temperature;humidity
1329;DHT22;658;48.820;9.354;2023-07-24T00:01:03;23.80;55.80
1329;DHT22;658;48.820;9.354;2023-07-24T00:05:04;23.90;55.80
1329;DHT22;658;48.820;9.354;2023-07-24T00:09:04;23.90;55.80
1329;DHT22;658;48.820;9.354;2023-07-24T00:13:07;23.90;55.90
1329;DHT22;658;48.820;9.354;2023-07-24T00:17:08;23.80;56.60
1329;DHT22;658;48.820;9.354;2023-07-24T00:21:08;23.80;56.60
1329;DHT22;658;48.820;9.354;2023-07-24T00:25:13;23.80;56.80
1329;DHT22;658;48.820;9.354;2023-07-24T00:29:14;23.80;56.70
1329;DHT22;658;48.820;9.354;2023-07-24T00:33:14;23.80;57.00
1329;DHT22;658;48.820;9.354;2023-07-24T00:37:15;23.80;57.20
1329;DHT22;658;48.820;9.354;2023-07-24T00:41:16;23.80;57.40
1329;DHT22;658;48.820;9.354;2023-07-24T00:45:17;23.80;57.60
1329;DHT22;658;48.820;9.354;2023-07-24T00:49:17;23.80;57.70
1329;DHT22;658;48.820;9.354;2023-07-24T00:53:20;23.70;58.40
1329;DHT22;658;48.820;9.354;2023-07-24T00:57:22;23.70;57.80
1329;DHT22;658;48.820;9.354;2023-07-24T01:01:24;23.70;58.10
1329;DHT22;658;48.820;9.354;2023-07-24T01:05:25;23.60;58.00
1329;DHT22;658;48.820;9.354;2023-07-24T01:09:26;23.60;57.80
1329;DHT22;658;48.820;9.354;2023-07-24T01:13:33;23.70;57.90
1329;DHT22;658;48.820;9.354;2023-07-24T01:17:41;23.70;57.80
1329;DHT22;658;48.820;9.354;2023-07-24T01:22:08;23.60;57.60
1329;DHT22;658;48.820;9.354;2023-07-24T01:26:11;23.60;57.40
1329;DHT22;658;48.820;9.354;2023-07-24T01:30:13;23.60;57.10
1329;DHT22;658;48.820;9.354;2023-07-24T01:34:14;23.60;56.90
1329;DHT22;658;48.820;9.354;2023-07-24T01:38:14;23.60;57.00
1329;DHT22;658;48.820;9.354;2023-07-24T01:42:18;23.60;56.70
1329;DHT22;658;48.820;9.354;2023-07-24T01:46:18;23.60;56.70
1329;DHT22;658;48.820;9.354;2023-07-24T01:50:19;23.60;56.80
1329;DHT22;658;48.820;9.354;2023-07-24T01:54:19;23.60;56.80
1329;DHT22;658;48.820;9.354;2023-07-24T01:58:20;23.60;56.80
1329;DHT22;658;48.820;9.354;2023-07-24T02:02:21;23.60;56.70
1329;DHT22;658;48.820;9.354;2023-07-24T02:06:21;23.60;56.70
1329;DHT22;658;48.820;9.354;2023-07-24T02:10:22;23.60;56.70
1329;DHT22;658;48.820;9.354;2023-07-24T02:14:22;23.60;56.70
1329;DHT22;658;48.820;9.354;2023-07-24T02:18:24;23.60;56.60
1329;DHT22;658;48.820;9.354;2023-07-24T02:22:25;23.60;56.60
1329;DHT22;658;48.820;9.354;2023-07-24T02:26:25;23.60;56.60
1329;DHT22;658;48.820;9.354;2023-07-24T02:30:26;23.60;56.60
1329;DHT22;658;48.820;9.354;2023-07-24T02:34:26;23.60;56.50
1329;DHT22;658;48.820;9.354;2023-07-24T02:38:28;23.50;56.60
1329;DHT22;658;48.820;9.354;2023-07-24T02:42:31;23.50;56.60
1329;DHT22;658;48.820;9.354;2023-07-24T02:46:31;23.50;56.60
1329;DHT22;658;48.820;9.354;2023-07-24T02:50:33;23.50;56.60
1329;DHT22;658;48.820;9.354;2023-07-24T02:54:34;23.50;56.50
1329;DHT22;658;48.820;9.354;2023-07-24T02:58:34;23.50;56.50
1329;DHT22;658;48.820;9.354;2023-07-24T03:02:35;23.50;56.50
1329;DHT22;658;48.820;9.354;2023-07-24T03:06:35;23.50;56.50
1329;DHT22;658;48.820;9.354;2023-07-24T03:10:40;23.50;56.50
1329;DHT22;658;48.820;9.354;2023-07-24T03:14:41;23.50;56.50
1329;DHT22;658;48.820;9.354;2023-07-24T03:18:42;23.50;56.50
1329;DHT22;658;48.820;9.354;2023-07-24T03:22:45;23.50;56.50
1329;DHT22;658;48.820;9.354;2023-07-24T03:26:45;23.50;56.50
1329;DHT22;658;48.820;9.354;2023-07-24T03:30:46;23.50;56.50
1329;DHT22;658;48.820;9.354;2023-07-24T03:34:46;23.50;57.00
1329;DHT22;658;48.820;9.354;2023-07-24T03:38:47;23.50;56.40
1329;DHT22;658;48.820;9.354;2023-07-24T03:42:50;23.50;56.30
1329;DHT22;658;48.820;9.354;2023-07-24T03:46:50;23.40;56.30
1329;DHT22;658;48.820;9.354;2023-07-24T03:50:58;23.40;56.30
1329;DHT22;658;48.820;9.354;2023-07-24T03:54:59;23.40;56.40
1329;DHT22;658;48.820;9.354;2023-07-24T03:58:59;23.40;56.30
1329;DHT22;658;48.820;9.354;2023-07-24T04:03:02;23.40;56.30
1329;DHT22;658;48.820;9.354;2023-07-24T04:07:04;23.40;56.30
1329;DHT22;658;48.820;9.354;2023-07-24T04:11:04;23.40;56.30
1329;DHT22;658;48.820;9.354;2023-07-24T04:15:06;23.40;56.40
1329;DHT22;658;48.820;9.354;2023-07-24T04:19:07;23.40;56.40
1329;DHT22;658;48.820;9.354;2023-07-24T04:23:07;23.40;56.40
1329;DHT22;658;48.820;9.354;2023-07-24T04:27:10;23.40;56.40
1329;DHT22;658;48.820;9.354;2023-07-24T04:31:11;23.40;56.60
1329;DHT22;658;48.820;9.354;2023-07-24T04:35:11;23.40;56.60
1329;DHT22;658;48.820;9.354;2023-07-24T04:39:15;23.40;56.70
1329;DHT22;658;48.820;9.354;2023-07-24T04:43:15;23.40;56.70
1329;DHT22;658;48.820;9.354;2023-07-24T04:47:16;23.40;56.70
1329;DHT22;658;48.820;9.354;2023-07-24T04:51:19;23.40;56.70
1329;DHT22;658;48.820;9.354;2023-07-24T04:55:19;23.30;56.70
1329;DHT22;658;48.820;9.354;2023-07-24T04:59:23;23.30;56.70
1329;DHT22;658;48.820;9.354;2023-07-24T05:03:24;23.30;56.80
1329;DHT22;658;48.820;9.354;2023-07-24T05:07:27;23.30;56.80
1329;DHT22;658;48.820;9.354;2023-07-24T05:11:28;23.30;56.90
1329;DHT22;658;48.820;9.354;2023-07-24T05:15:28;23.30;56.80
1329;DHT22;658;48.820;9.354;2023-07-24T05:19:29;23.40;57.00
1329;DHT22;658;48.820;9.354;2023-07-24T05:23:32;23.40;57.20
1329;DHT22;658;48.820;9.354;2023-07-24T05:27:32;23.40;57.30
1329;DHT22;658;48.820;9.354;2023-07-24T05:31:36;23.40;57.50
1329;DHT22;658;48.820;9.354;2023-07-24T05:35:36;23.30;57.70
1329;DHT22;658;48.820;9.354;2023-07-24T05:39:37;23.30;58.00
1329;DHT22;658;48.820;9.354;2023-07-24T05:43:37;23.30;58.50
1329;DHT22;658;48.820;9.354;2023-07-24T05:47:38;23.30;59.00
1329;DHT22;658;48.820;9.354;2023-07-24T05:51:41;23.30;58.70
1329;DHT22;658;48.820;9.354;2023-07-24T05:55:41;23.20;58.90
1329;DHT22;658;48.820;9.354;2023-07-24T05:59:45;23.30;59.30
1329;DHT22;658;48.820;9.354;2023-07-24T06:03:45;23.30;59.30
1329;DHT22;658;48.820;9.354;2023-07-24T06:07:47;23.30;59.60
1329;DHT22;658;48.820;9.354;2023-07-24T06:11:47;23.30;59.70
1329;DHT22;658;48.820;9.354;2023-07-24T06:15:52;23.30;59.60
1329;DHT22;658;48.820;9.354;2023-07-24T06:19:52;23.40;59.40
1329;DHT22;658;48.820;9.354;2023-07-24T06:23:53;23.50;59.20
1329;DHT22;658;48.820;9.354;2023-07-24T06:27:53;23.50;59.10
1329;DHT22;658;48.820;9.354;2023-07-24T06:31:54;23.50;58.70
1329;DHT22;658;48.820;9.354;2023-07-24T06:35:56;23.60;58.60
1329;DHT22;658;48.820;9.354;2023-07-24T06:39:57;23.60;58.50
1329;DHT22;658;48.820;9.354;2023-07-24T06:43:58;23.60;58.40
1329;DHT22;658;48.820;9.354;2023-07-24T06:47:59;23.60;58.30
1329;DHT22;658;48.820;9.354;2023-07-24T06:52:02;23.60;58.20
1329;DHT22;658;48.820;9.354;2023-07-24T06:56:02;23.70;58.10
1329;DHT22;658;48.820;9.354;2023-07-24T07:00:03;23.70;57.70
1329;DHT22;658;48.820;9.354;2023-07-24T07:04:04;23.80;57.70
1329;DHT22;658;48.820;9.354;2023-07-24T07:08:05;23.90;57.50
1329;DHT22;658;48.820;9.354;2023-07-24T07:12:06;23.90;57.30
1329;DHT22;658;48.820;9.354;2023-07-24T07:16:06;24.00;57.20
1329;DHT22;658;48.820;9.354;2023-07-24T07:20:09;24.00;57.00
1329;DHT22;658;48.820;9.354;2023-07-24T07:24:10;24.10;56.90
1329;DHT22;658;48.820;9.354;2023-07-24T07:28:11;24.10;56.70
1329;DHT22;658;48.820;9.354;2023-07-24T07:32:12;24.10;56.60
1329;DHT22;658;48.820;9.354;2023-07-24T07:36:13;24.20;56.50
1329;DHT22;658;48.820;9.354;2023-07-24T07:40:13;24.20;56.40
1329;DHT22;658;48.820;9.354;2023-07-24T07:44:14;24.20;56.30
1329;DHT22;658;48.820;9.354;2023-07-24T07:48:14;24.30;56.20
1329;DHT22;658;48.820;9.354;2023-07-24T07:52:17;24.30;56.10
1329;DHT22;658;48.820;9.354;2023-07-24T07:56:18;24.30;56.00
1329;DHT22;658;48.820;9.354;2023-07-24T08:00:19;24.40;56.00
1329;DHT22;658;48.820;9.354;2023-07-24T08:04:19;24.40;55.90
1329;DHT22;658;48.820;9.354;2023-07-24T08:08:20;24.30;55.90
1329;DHT22;658;48.820;9.354;2023-07-24T08:12:21;24.40;55.90
1329;DHT22;658;48.820;9.354;2023-07-24T08:16:21;24.40;56.10
1329;DHT22;658;48.820;9.354;2023-07-24T08:20:22;24.40;56.00
1329;DHT22;658;48.820;9.354;2023-07-24T08:24:23;24.40;56.20
1329;DHT22;658;48.820;9.354;2023-07-24T08:28:23;24.40;56.30
1329;DHT22;658;48.820;9.354;2023-07-24T08:32:24;24.50;56.40
1329;DHT22;658;48.820;9.354;2023-07-24T08:36:24;24.50;56.10
1329;DHT22;658;48.820;9.354;2023-07-24T08:40:27;24.50;56.70
1329;DHT22;658;48.820;9.354;2023-07-24T08:44:28;24.50;56.60
1329;DHT22;658;48.820;9.354;2023-07-24T08:48:36;24.50;56.40
1329;DHT22;658;48.820;9.354;2023-07-24T08:52:39;24.50;56.50
1329;DHT22;658;48.820;9.354;2023-07-24T08:56:40;24.50;56.80
1329;DHT22;658;48.820;9.354;2023-07-24T09:00:47;24.50;56.90
1329;DHT22;658;48.820;9.354;2023-07-24T09:04:48;24.50;57.10
1329;DHT22;658;48.820;9.354;2023-07-24T09:08:48;24.60;57.40
1329;DHT22;658;48.820;9.354;2023-07-24T09:12:49;24.60;57.50
1329;DHT22;658;48.820;9.354;2023-07-24T09:17:09;24.60;57.60
1329;DHT22;658;48.820;9.354;2023-07-24T09:21:12;24.60;57.70
1329;DHT22;658;48.820;9.354;2023-07-24T09:25:15;24.70;57.80
1329;DHT22;658;48.820;9.354;2023-07-24T09:29:16;24.70;58.00
1329;DHT22;658;48.820;9.354;2023-07-24T09:33:17;24.80;58.00
1329;DHT22;658;48.820;9.354;2023-07-24T09:37:27;24.80;57.90
1329;DHT22;658;48.820;9.354;2023-07-24T09:41:28;24.80;58.20
1329;DHT22;658;48.820;9.354;2023-07-24T09:45:29;24.80;58.20
1329;DHT22;658;48.820;9.354;2023-07-24T09:49:30;24.80;58.10
1329;DHT22;658;48.820;9.354;2023-07-24T09:53:43;24.90;58.10
1329;DHT22;658;48.820;9.354;2023-07-24T09:57:48;24.90;58.00
1329;DHT22;658;48.820;9.354;2023-07-24T10:01:51;24.90;58.70
1329;DHT22;658;48.820;9.354;2023-07-24T10:05:53;24.90;58.60
1329;DHT22;658;48.820;9.354;2023-07-24T10:09:54;24.90;58.80
1329;DHT22;658;48.820;9.354;2023-07-24T10:13:55;24.90;59.10
1329;DHT22;658;48.820;9.354;2023-07-24T10:18:04;24.90;59.40
1329;DHT22;658;48.820;9.354;2023-07-24T10:22:05;24.90;59.60
1329;DHT22;658;48.820;9.354;2023-07-24T10:26:06;24.80;59.50
1329;DHT22;658;48.820;9.354;2023-07-24T10:30:07;24.80;59.70
1329;DHT22;658;48.820;9.354;2023-07-24T10:34:10;24.80;59.20
1329;DHT22;658;48.820;9.354;2023-07-24T10:38:13;24.80;58.90
1329;DHT22;658;48.820;9.354;2023-07-24T10:42:13;24.80;58.90
1329;DHT22;658;48.820;9.354;2023-07-24T10:46:22;24.80;58.90
1329;DHT22;658;48.820;9.354;2023-07-24T10:50:23;24.80;58.90
1329;DHT22;658;48.820;9.354;2023-07-24T10:54:24;24.80;59.00
1329;DHT22;658;48.820;9.354;2023-07-24T10:58:25;24.80;59.10
1329;DHT22;658;48.820;9.354;2023-07-24T11:02:27;24.80;59.20
1329;DHT22;658;48.820;9.354;2023-07-24T11:06:33;24.80;59.40
1329;DHT22;658;48.820;9.354;2023-07-24T11:10:34;24.80;59.60
1329;DHT22;658;48.820;9.354;2023-07-24T11:14:35;24.70;59.60
1329;DHT22;658;48.820;9.354;2023-07-24T11:18:49;24.70;59.60
1329;DHT22;658;48.820;9.354;2023-07-24T11:22:50;24.70;60.40
1329;DHT22;658;48.820;9.354;2023-07-24T11:26:52;24.80;60.20
1329;DHT22;658;48.820;9.354;2023-07-24T11:30:53;24.80;60.40
1329;DHT22;658;48.820;9.354;2023-07-24T11:34:54;24.80;60.50
1329;DHT22;658;48.820;9.354;2023-07-24T11:38:54;24.80;60.80
1329;DHT22;658;48.820;9.354;2023-07-24T11:42:55;24.80;60.80
1329;DHT22;658;48.820;9.354;2023-07-24T11:47:03;24.80;60.50
1329;DHT22;658;48.820;9.354;2023-07-24T11:51:04;24.90;60.80
1329;DHT22;658;48.820;9.354;2023-07-24T11:55:05;24.90;60.60
1329;DHT22;658;48.820;9.354;2023-07-24T11:59:13;25.00;60.70
1329;DHT22;658;48.820;9.354;2023-07-24T12:03:34;25.00;60.60
1329;DHT22;658;48.820;9.354;2023-07-24T12:07:35;25.00;60.80
1329;DHT22;658;48.820;9.354;2023-07-24T12:11:40;25.00;60.80
1329;DHT22;658;48.820;9.354;2023-07-24T12:15:44;25.00;61.30
1329;DHT22;658;48.820;9.354;2023-07-24T12:19:45;24.90;60.80
1329;DHT22;658;48.820;9.354;2023-07-24T12:23:45;25.00;60.60
1329;DHT22;658;48.820;9.354;2023-07-24T12:27:47;25.00;60.70
1329;DHT22;658;48.820;9.354;2023-07-24T12:31:47;24.90;60.60
1329;DHT22;658;48.820;9.354;2023-07-24T12:35:48;24.90;60.50
1329;DHT22;658;48.820;9.354;2023-07-24T12:39:49;25.00;60.70
1329;DHT22;658;48.820;9.354;2023-07-24T12:43:50;25.00;60.80
1329;DHT22;658;48.820;9.354;2023-07-24T12:47:52;25.00;60.70
1329;DHT22;658;48.820;9.354;2023-07-24T12:51:55;25.00;60.20
1329;DHT22;658;48.820;9.354;2023-07-24T12:55:56;25.10;60.40
1329;DHT22;658;48.820;9.354;2023-07-24T12:59:56;25.10;60.20
1329;DHT22;658;48.820;9.354;2023-07-24T13:04:00;25.10;60.10
1329;DHT22;658;48.820;9.354;2023-07-24T13:08:00;25.10;60.10
1329;DHT22;658;48.820;9.354;2023-07-24T13:12:01;25.20;59.90
1329;DHT22;658;48.820;9.354;2023-07-24T13:16:02;25.20;59.90
1329;DHT22;658;48.820;9.354;2023-07-24T13:20:03;25.20;59.70
1329;DHT22;658;48.820;9.354;2023-07-24T13:24:04;25.30;59.70
1329;DHT22;658;48.820;9.354;2023-07-24T13:28:05;25.30;59.60
1329;DHT22;658;48.820;9.354;2023-07-24T13:32:06;25.30;59.60
1329;DHT22;658;48.820;9.354;2023-07-24T13:36:06;25.30;59.50
1329;DHT22;658;48.820;9.354;2023-07-24T13:40:08;25.30;59.40
1329;DHT22;658;48.820;9.354;2023-07-24T13:44:09;25.40;59.40
1329;DHT22;658;48.820;9.354;2023-07-24T13:48:10;25.40;59.30
1329;DHT22;658;48.820;9.354;2023-07-24T13:52:11;25.40;59.50
1329;DHT22;658;48.820;9.354;2023-07-24T13:56:11;25.40;59.50
1329;DHT22;658;48.820;9.354;2023-07-24T14:00:12;25.40;59.50
1329;DHT22;658;48.820;9.354;2023-07-24T14:04:13;25.40;59.50
1329;DHT22;658;48.820;9.354;2023-07-24T14:08:14;25.50;59.60
1329;DHT22;658;48.820;9.354;2023-07-24T14:12:15;25.50;59.60
1329;DHT22;658;48.820;9.354;2023-07-24T14:16:16;25.50;59.60
1329;DHT22;658;48.820;9.354;2023-07-24T14:20:16;25.60;59.60
1329;DHT22;658;48.820;9.354;2023-07-24T14:24:19;25.60;59.40
1329;DHT22;658;48.820;9.354;2023-07-24T14:28:23;25.60;59.50
1329;DHT22;658;48.820;9.354;2023-07-24T14:32:23;25.60;59.60
1329;DHT22;658;48.820;9.354;2023-07-24T14:36:24;25.50;59.50
1329;DHT22;658;48.820;9.354;2023-07-24T14:40:29;25.50;59.20
1329;DHT22;658;48.820;9.354;2023-07-24T14:44:30;25.50;59.10
1329;DHT22;658;48.820;9.354;2023-07-24T14:48:30;25.40;59.00
1329;DHT22;658;48.820;9.354;2023-07-24T14:52:31;25.50;58.80
1329;DHT22;658;48.820;9.354;2023-07-24T14:56:32;25.50;58.80
1329;DHT22;658;48.820;9.354;2023-07-24T15:00:33;25.60;58.80
1329;DHT22;658;48.820;9.354;2023-07-24T15:04:33;25.60;58.50
1329;DHT22;658;48.820;9.354;2023-07-24T15:08:34;25.60;59.10
1329;DHT22;658;48.820;9.354;2023-07-24T15:12:35;25.60;58.50
1329;DHT22;658;48.820;9.354;2023-07-24T15:16:35;25.60;58.60
1329;DHT22;658;48.820;9.354;2023-07-24T15:20:39;25.60;58.50
1329;DHT22;658;48.820;9.354;2023-07-24T15:24:40;25.60;58.40
1329;DHT22;658;48.820;9.354;2023-07-24T15:28:42;25.50;58.30
1329;DHT22;658;48.820;9.354;2023-07-24T15:32:42;25.40;58.30
1329;DHT22;658;48.820;9.354;2023-07-24T15:36:43;25.40;58.50
1329;DHT22;658;48.820;9.354;2023-07-24T15:40:43;25.40;58.60
1329;DHT22;658;48.820;9.354;2023-07-24T15:44:44;25.30;58.50
1329;DHT22;658;48.820;9.354;2023-07-24T15:48:44;25.30;58.50
1329;DHT22;658;48.820;9.354;2023-07-24T15:52:45;25.30;58.50
1329;DHT22;658;48.820;9.354;2023-07-24T15:56:45;25.20;59.10
1329;DHT22;658;48.820;9.354;2023-07-24T16:00:46;25.20;58.70
1329;DHT22;658;48.820;9.354;2023-07-24T16:04:49;25.20;58.70
1329;DHT22;658;48.820;9.354;2023-07-24T16:08:50;25.30;58.70
1329;DHT22;658;48.820;9.354;2023-07-24T16:12:53;25.30;58.60
1329;DHT22;658;48.820;9.354;2023-07-24T16:16:54;25.30;58.70
1329;DHT22;658;48.820;9.354;2023-07-24T16:20:54;25.30;58.60
1329;DHT22;658;48.820;9.354;2023-07-24T16:24:55;25.30;58.50
1329;DHT22;658;48.820;9.354;2023-07-24T16:28:57;25.30;58.50
1329;DHT22;658;48.820;9.354;2023-07-24T16:32:57;25.30;58.50
1329;DHT22;658;48.820;9.354;2023-07-24T16:36:59;25.30;58.50
1329;DHT22;658;48.820;9.354;2023-07-24T16:40:59;25.30;58.50
1329;DHT22;658;48.820;9.354;2023-07-24T16:45:03;25.20;58.40
1329;DHT22;658;48.820;9.354;2023-07-24T16:49:03;25.20;58.50
1329;DHT22;658;48.820;9.354;2023-07-24T16:53:06;25.20;58.50
1329;DHT22;658;48.820;9.354;2023-07-24T16:57:06;25.20;58.50
1329;DHT22;658;48.820;9.354;2023-07-24T17:01:07;25.10;58.50
1329;DHT22;658;48.820;9.354;2023-07-24T17:05:08;25.10;58.80
1329;DHT22;658;48.820;9.354;2023-07-24T17:09:08;25.00;58.80
1329;DHT22;658;48.820;9.354;2023-07-24T17:13:09;25.00;59.30
1329;DHT22;658;48.820;9.354;2023-07-24T17:17:10;25.00;60.00
1329;DHT22;658;48.820;9.354;2023-07-24T17:21:11;25.00;59.60
1329;DHT22;658;48.820;9.354;2023-07-24T17:25:12;25.00;59.20
1329;DHT22;658;48.820;9.354;2023-07-24T17:29:13;25.00;59.10
1329;DHT22;658;48.820;9.354;2023-07-24T17:33:13;25.00;58.90
1329;DHT22;658;48.820;9.354;2023-07-24T17:37:14;25.10;58.90
1329;DHT22;658;48.820;9.354;2023-07-24T17:41:15;25.10;58.80
1329;DHT22;658;48.820;9.354;2023-07-24T17:45:16;25.10;58.80
1329;DHT22;658;48.820;9.354;2023-07-24T17:49:18;25.10;58.70
1329;DHT22;658;48.820;9.354;2023-07-24T17:53:18;25.10;58.70
1329;DHT22;658;48.820;9.354;2023-07-24T17:57:22;25.10;58.70
1329;DHT22;658;48.820;9.354;2023-07-24T18:01:22;25.10;58.70
1329;DHT22;658;48.820;9.354;2023-07-24T18:05:23;25.20;58.80
1329;DHT22;658;48.820;9.354;2023-07-24T18:09:24;25.20;58.70
1329;DHT22;658;48.820;9.354;2023-07-24T18:13:24;25.20;58.60
1329;DHT22;658;48.820;9.354;2023-07-24T18:17:25;25.30;58.60
1329;DHT22;658;48.820;9.354;2023-07-24T18:21:26;25.30;58.40
1329;DHT22;658;48.820;9.354;2023-07-24T18:25:26;25.40;58.20
1329;DHT22;658;48.820;9.354;2023-07-24T18:29:27;25.50;58.00
1329;DHT22;658;48.820;9.354;2023-07-24T18:33:29;25.60;57.80
1329;DHT22;658;48.820;9.354;2023-07-24T18:37:29;25.60;57.60
1329;DHT22;658;48.820;9.354;2023-07-24T18:41:30;25.60;57.40
1329;DHT22;658;48.820;9.354;2023-07-24T18:45:30;25.70;57.40
1329;DHT22;658;48.820;9.354;2023-07-24T18:49:31;25.70;57.60
1329;DHT22;658;48.820;9.354;2023-07-24T18:53:32;25.60;57.40
1329;DHT22;658;48.820;9.354;2023-07-24T18:57:32;25.60;57.60
1329;DHT22;658;48.820;9.354;2023-07-24T19:01:33;25.50;57.70
1329;DHT22;658;48.820;9.354;2023-07-24T19:05:33;25.50;57.80
1329;DHT22;658;48.820;9.354;2023-07-24T19:09:34;25.40;57.90
1329;DHT22;658;48.820;9.354;2023-07-24T19:13:35;25.40;57.90
1329;DHT22;658;48.820;9.354;2023-07-24T19:17:35;25.30;58.50
1329;DHT22;658;48.820;9.354;2023-07-24T19:21:40;25.30;58.00
1329;DHT22;658;48.820;9.354;2023-07-24T19:25:43;25.30;58.10
1329;DHT22;658;48.820;9.354;2023-07-24T19:29:44;25.30;58.20
1329;DHT22;658;48.820;9.354;2023-07-24T19:33:47;25.20;58.20
1329;DHT22;658;48.820;9.354;2023-07-24T19:37:47;25.20;58.20
1329;DHT22;658;48.820;9.354;2023-07-24T19:41:50;25.20;58.30
1329;DHT22;658;48.820;9.354;2023-07-24T19:45:53;25.10;58.20
1329;DHT22;658;48.820;9.354;2023-07-24T19:49:54;25.10;58.20
1329;DHT22;658;48.820;9.354;2023-07-24T19:53:54;25.10;58.60
1329;DHT22;658;48.820;9.354;2023-07-24T19:57:55;25.10;58.70
1329;DHT22;658;48.820;9.354;2023-07-24T20:01:56;25.10;58.60
1329;DHT22;658;48.820;9.354;2023-07-24T20:06:01;25.10;58.60
1329;DHT22;658;48.820;9.354;2023-07-24T20:10:02;25.10;58.50
1329;DHT22;658;48.820;9.354;2023-07-24T20:14:02;25.20;58.50
1329;DHT22;658;48.820;9.354;2023-07-24T20:18:03;25.20;58.50
1329;DHT22;658;48.820;9.354;2023-07-24T20:22:04;25.20;58.40
1329;DHT22;658;48.820;9.354;2023-07-24T20:26:06;25.30;58.60
1329;DHT22;658;48.820;9.354;2023-07-24T20:30:08;25.30;58.30
1329;DHT22;658;48.820;9.354;2023-07-24T20:34:09;25.30;58.30
1329;DHT22;658;48.820;9.354;2023-07-24T20:38:24;25.30;58.10
1329;DHT22;658;48.820;9.354;2023-07-24T20:42:24;25.30;58.00
1329;DHT22;658;48.820;9.354;2023-07-24T20:46:25;25.40;58.00
1329;DHT22;658;48.820;9.354;2023-07-24T20:50:26;25.40;58.00
1329;DHT22;658;48.820;9.354;2023-07-24T20:54:27;25.40;57.80
1329;DHT22;658;48.820;9.354;2023-07-24T20:58:27;25.40;57.80
1329;DHT22;658;48.820;9.354;2023-07-24T21:02:28;25.40;58.30
1329;DHT22;658;48.820;9.354;2023-07-24T21:06:29;25.40;57.60
1329;DHT22;658;48.820;9.354;2023-07-24T21:10:29;25.40;57.70
1329;DHT22;658;48.820;9.354;2023-07-24T21:14:31;25.40;57.70
1329;DHT22;658;48.820;9.354;2023-07-24T21:18:32;25.40;57.70
1329;DHT22;658;48.820;9.354;2023-07-24T21:22:32;25.30;57.50
1329;DHT22;658;48.820;9.354;2023-07-24T21:26:33;25.20;57.40
1329;DHT22;658;48.820;9.354;2023-07-24T21:30:34;25.10;57.30
1329;DHT22;658;48.820;9.354;2023-07-24T21:34:34;25.00;57.50
1329;DHT22;658;48.820;9.354;2023-07-24T21:38:40;25.00;57.50
1329;DHT22;658;48.820;9.354;2023-07-24T21:42:41;24.90;57.50
1329;DHT22;658;48.820;9.354;2023-07-24T21:46:41;24.80;57.50
1329;DHT22;658;48.820;9.354;2023-07-24T21:50:46;24.80;57.60
1329;DHT22;658;48.820;9.354;2023-07-24T21:54:51;24.70;57.70
1329;DHT22;658;48.820;9.354;2023-07-24T21:58:52;24.60;57.70
1329;DHT22;658;48.820;9.354;2023-07-24T22:02:54;24.60;57.90
1329;DHT22;658;48.820;9.354;2023-07-24T22:06:55;24.60;58.00
1329;DHT22;658;48.820;9.354;2023-07-24T22:10:55;24.50;58.00
1329;DHT22;658;48.820;9.354;2023-07-24T22:14:56;24.50;57.90
1329;DHT22;658;48.820;9.354;2023-07-24T22:18:59;24.40;57.90
1329;DHT22;658;48.820;9.354;2023-07-24T22:23:00;24.40;58.00
1329;DHT22;658;48.820;9.354;2023-07-24T22:27:00;24.30;58.10
1329;DHT22;658;48.820;9.354;2023-07-24T22:31:07;24.30;58.10
1329;DHT22;658;48.820;9.354;2023-07-24T22:35:10;24.30;58.10
1329;DHT22;658;48.820;9.354;2023-07-24T22:39:11;24.30;58.20
1329;DHT22;658;48.820;9.354;2023-07-24T22:43:12;24.30;58.20
1329;DHT22;658;48.820;9.354;2023-07-24T22:47:12;24.30;58.10
1329;DHT22;658;48.820;9.354;2023-07-24T22:51:13;24.20;58.00
1329;DHT22;658;48.820;9.354;2023-07-24T22:55:14;24.20;58.00
1329;DHT22;658;48.820;9.354;2023-07-24T23:03:25;24.10;58.10
1329;DHT22;658;48.820;9.354;2023-07-24T23:07:26;24.10;58.20
1329;DHT22;658;48.820;9.354;2023-07-24T23:11:26;24.10;58.30
1329;DHT22;658;48.820;9.354;2023-07-24T23:15:27;24.00;58.90
1329;DHT22;658;48.820;9.354;2023-07-24T23:19:27;24.00;58.40
1329;DHT22;658;48.820;9.354;2023-07-24T23:23:28;24.00;58.40
1329;DHT22;658;48.820;9.354;2023-07-24T23:27:28;23.90;58.40
1329;DHT22;658;48.820;9.354;2023-07-24T23:31:29;23.90;58.30
1329;DHT22;658;48.820;9.354;2023-07-24T23:35:31;23.90;58.30
1329;DHT22;658;48.820;9.354;2023-07-24T23:39:32;23.90;58.30
1329;DHT22;658;48.820;9.354;2023-07-24T23:43:33;23.90;58.30
1329;DHT22;658;48.820;9.354;2023-07-24T23:47:34;23.90;58.30
1329;DHT22;658;48.820;9.354;2023-07-24T23:51:36;23.80;58.20
1329;DHT22;658;48.820;9.354;2023-07-24T23:55:36;23.80;58.20
1329;DHT22;658;48.820;9.354;2023-07-24T23:59:37;23.90;58.30
